CheckWX is a tool to help pilots better visualize weather data.  It is not intended as a substitute for an official pre-flight weather briefing.

21:18:15 UTC

KSDF METAR
Louisville International-Standiford Field Airport
Louisville, Kentucky, USA
Current

22 mins ago

KSDF 102056Z 30016G23KT 10SM SCT045 BKN060 31/20 A2988 RMK AO2 SLP112 T03060200 51006
Observed
Jul-10 @ 20:56 UTC
Wind
  • 300° at 16 KTS
  • Gusting to 23 KTS
Visibility
10 SM
Flight Rules
VFR
Cloud Levels
  • Scattered at 4,500' AGL
  • Broken at 6,000' AGL
Temperature
31°C / 88°F
Dewpoint
20°C / 68°F
Humidity
52%
Altimeter
29.88" Hg
Pressure
1011.82 hPa
Previous

1 hour ago

KSDF 101956Z 29018G25KT 10SM SCT045 31/20 A2988 RMK AO2 SLP111 T03060200
Observed
Jul-10 @ 19:56 UTC
Wind
  • 290° at 18 KTS
  • Gusting to 25 KTS
Visibility
10 SM
Flight Rules
VFR
Cloud Levels
  • Scattered at 4,500' AGL
Temperature
31°C / 88°F
Dewpoint
20°C / 68°F
Humidity
52%
Altimeter
29.88" Hg
Pressure
1011.82 hPa
Previous

2 hours ago

KSDF 101856Z 30014G24KT 10SM SCT045 29/19 A2988 RMK AO2 PK WND 27027/1833 SLP111 T02940189
Observed
Jul-10 @ 18:56 UTC
Wind
  • 300° at 14 KTS
  • Gusting to 24 KTS
Visibility
10 SM
Flight Rules
VFR
Cloud Levels
  • Scattered at 4,500' AGL
Temperature
29°C / 84°F
Dewpoint
19°C / 66°F
Humidity
55%
Altimeter
29.88" Hg
Pressure
1011.82 hPa